MOL Celebration — C6WW7 — position and weather

sailwx.info

Track history (hours):
 
Tides and Currents Weather Stations Pressure Air Temp Water Temp Dewpoint Dewpoint Depression Visibility Wind Speed Wind Dir Waves Ship Positions

MOL Celebration

Last reported at 2015-Feb-26 22:32 UTC. Time now 2015-Feb-26 23:22 UTC.
Position N 37°49' W 122°20'.

Length 316 m; draft 12.1 m.

Type: Ship (hazmat cat D). MMSI: 309901000.

Date/timePositionNaut miles runAvg speedWind from/ knotsBaromVisibWave heightAir tempDewpointWater temp
2015-Feb-26 22:32N 37°49' W 122°20'0 0.0
2015-Feb-26 21:32N 37°49' W 122°20'0 0.0
2015-Feb-26 20:32N 37°49' W 122°20'0 0.0
2015-Feb-26 19:32N 37°49' W 122°20'0 0.0
2015-Feb-26 18:32N 37°49' W 122°20'0 0.0
2015-Feb-26 17:32N 37°49' W 122°20'0 0.0
2015-Feb-26 16:32N 37°49' W 122°20'0 0.0
2015-Feb-26 15:32N 37°49' W 122°20'2 1.8
2015-Feb-26 14:33N 37°48' W 122°22'5 5.2
2015-Feb-26 13:33N 37°49' W 122°28'1211.5
2015-Feb-26 12:33N 37°43' W 122°40'1212.0
2015-Feb-26 11:33N 37°31' W 122°40'1412.4
2015-Feb-26 10:28N 37°17' W 122°40'1712.6
2015-Feb-26 09:08N 37°01' W 122°40'812.0
2015-Feb-26 08:26N 36°52' W 122°43'910.2
2015-Feb-26 07:32N 36°44' W 122°48'4 1.8
2015-Feb-26 05:29N 36°48' W 122°48'2 2.0
2015-Feb-26 04:26N 36°50' W 122°48'2 2.1
2015-Feb-26 03:33N 36°52' W 122°48'2 2.0
2015-Feb-26 02:33N 36°54' W 122°49'2 1.9
2015-Feb-26 01:33N 36°56' W 122°48'2 2.0
2015-Feb-26 00:33N 36°58' W 122°48'2 2.0
2015-Feb-25 23:33N 36°60' W 122°48'2 1.7
2015-Feb-25 22:33N 37°01' W 122°48'1 1.4
2015-Feb-25 21:33N 37°03' W 122°48'1 1.4
2015-Feb-25 20:33N 37°04' W 122°48'1 1.4
2015-Feb-25 19:33N 37°06' W 122°47'1 1.3
2015-Feb-25 18:33N 37°07' W 122°47'3 3.0
2015-Feb-25 17:33N 37°05' W 122°45'5 5.3
2015-Feb-25 16:33N 37°01' W 122°40'8 7.3
2015-Feb-25 15:30N 36°54' W 122°40'1112.2
2015-Feb-25 14:33N 36°42' W 122°39'1611.8
2015-Feb-25 13:13N 36°27' W 122°33'911.6
2015-Feb-25 12:28N 36°19' W 122°30'1311.6
2015-Feb-25 11:19N 36°06' W 122°24'1311.8
2015-Feb-25 10:13N 35°54' W 122°19'811.9
2015-Feb-25 09:33N 35°46' W 122°16'1411.8
2015-Feb-25 08:23N 35°34' W 122°09'1011.6
2015-Feb-25 07:33N 35°25' W 122°04'1212.1
2015-Feb-25 06:33N 35°14' W 121°59'1212.1
2015-Feb-25 05:33N 35°03' W 121°53'1211.8
2015-Feb-25 04:33N 34°52' W 121°47'1211.6
2015-Feb-25 03:32N 34°41' W 121°40'1211.7
2015-Feb-25 02:33N 34°31' W 121°35'1211.9
2015-Feb-25 01:33N 34°20' W 121°28'1411.6
2015-Feb-25 00:19N 34°08' W 121°20'911.7
2015-Feb-24 23:32N 33°59' W 121°15'1212.3
2015-Feb-24 22:33N 33°49' W 121°09'1312.8
2015-Feb-24 21:33N 33°37' W 121°02'  
2015-Feb-22 06:32N 33°35' W 120°59'2 0.8
2015-Feb-22 04:29N 33°36' W 120°60'3 1.1
2015-Feb-22 01:33N 33°38' W 121°03'36 2.2
2015-Feb-21 09:20N 33°02' W 120°57'1 0.7
2015-Feb-21 08:33N 33°03' W 120°57'1 0.8
2015-Feb-21 07:33N 33°04' W 120°57'1 0.9
2015-Feb-21 06:29N 33°05' W 120°58'1 0.9
2015-Feb-21 05:33N 33°05' W 120°58'1 0.8
2015-Feb-21 04:33N 33°06' W 120°58'2 0.8
2015-Feb-21 02:07N 33°08' W 120°60'0 0.8
2015-Feb-21 01:30N 33°08' W 120°60'1 0.8
2015-Feb-21 00:27N 33°09' W 120°60'1 0.9
2015-Feb-20 23:11N 33°10' W 121°00'1 0.8
2015-Feb-20 22:33N 33°11' W 121°00'1 0.8
2015-Feb-20 21:14N 33°12' W 121°00'1 0.8
2015-Feb-20 20:20N 33°12' W 121°00'1 0.8
2015-Feb-20 19:31N 33°13' W 120°60'1 0.7
2015-Feb-20 18:31N 33°14' W 120°60'2 0.7
2015-Feb-20 16:21N 33°15' W 120°59'1 0.7
2015-Feb-20 15:33N 33°16' W 120°59'2 0.9
2015-Feb-20 13:23N 33°18' W 120°59'1 1.0
2015-Feb-20 12:33N 33°18' W 120°60'1 1.1
2015-Feb-20 11:33N 33°20' W 120°59'1 1.2
2015-Feb-20 10:33N 33°21' W 120°59'1 1.3
2015-Feb-20 09:33N 33°22' W 120°59'1 1.2
2015-Feb-20 08:33N 33°23' W 120°59'1 1.2
2015-Feb-20 07:32N 33°24' W 120°59'1 1.3
2015-Feb-20 06:29N 33°26' W 120°59'1 1.2
2015-Feb-20 05:29N 33°27' W 120°59'1 1.2
2015-Feb-20 04:30N 33°28' W 120°59'1 1.1
2015-Feb-20 03:33N 33°29' W 120°59'1 1.2
2015-Feb-20 02:21N 33°30' W 121°00'4 1.1
2015-Feb-19 23:11N 33°33' W 121°03'1 1.0
2015-Feb-19 22:29N 33°33' W 121°04'1 0.7
2015-Feb-19 21:33N 33°34' W 121°04'1 0.5
2015-Feb-19 20:33N 33°34' W 121°05'0 0.5
2015-Feb-19 19:33N 33°34' W 121°05'0 0.4
2015-Feb-19 18:33N 33°35' W 121°06'0 0.4
2015-Feb-19 17:32N 33°35' W 121°06'0 0.5
2015-Feb-19 16:33N 33°36' W 121°06'1 0.7
2015-Feb-19 15:06N 33°36' W 121°07'1 0.9
2015-Feb-19 14:03N 33°37' W 121°08'0 0.8
2015-Feb-19 13:33N 33°37' W 121°08'1 1.0
2015-Feb-19 12:27N 33°38' W 121°09'1 0.9
2015-Feb-19 11:33N 33°39' W 121°09'1 0.8
2015-Feb-19 10:33N 33°40' W 121°10'1 1.0
2015-Feb-19 09:27N 33°41' W 121°10'1 1.0
2015-Feb-19 08:33N 33°41' W 121°10'1 0.9
2015-Feb-19 07:33N 33°42' W 121°11'1 1.0
2015-Feb-19 06:31N 33°43' W 121°11'1 1.1
2015-Feb-19 05:33N 33°44' W 121°12'1 1.0
2015-Feb-19 04:33N 33°45' W 121°12'1 0.9
2015-Feb-19 03:33N 33°46' W 121°13'1 0.8
2015-Feb-19 02:15N 33°47' W 121°14'1 1.0
2015-Feb-19 01:33N 33°47' W 121°14'1 1.0
2015-Feb-19 00:33N 33°48' W 121°15'1 0.9
2015-Feb-18 23:33N 33°49' W 121°16'1 0.9
2015-Feb-18 22:33N 33°49' W 121°17'1 0.7
2015-Feb-18 21:32N 33°50' W 121°17'1 0.8
2015-Feb-18 20:33N 33°51' W 121°17'1 0.8
2015-Feb-18 19:33N 33°51' W 121°17'1 0.9
2015-Feb-18 18:32N 33°52' W 121°17'1 1.0
2015-Feb-18 17:31N 33°53' W 121°17'1 0.9
2015-Feb-18 16:33N 33°54' W 121°17'1 0.9
2015-Feb-18 15:33N 33°55' W 121°17'1 1.0
2015-Feb-18 14:33N 33°56' W 121°17'1 1.0
2015-Feb-18 13:33N 33°57' W 121°16'1 1.1
2015-Feb-18 12:32N 33°58' W 121°17'2 1.2
2015-Feb-18 10:30N 34°00' W 121°18'1 1.1
2015-Feb-18 09:33N 34°01' W 121°18'1 1.0
2015-Feb-18 08:26N 34°02' W 121°18'1 1.0
2015-Feb-18 07:33N 34°03' W 121°18'1 1.0
2015-Feb-18 06:33N 34°04' W 121°18'1 1.2
2015-Feb-18 05:33N 34°05' W 121°17'1 1.3
2015-Feb-18 04:33N 34°07' W 121°17'1 1.3
2015-Feb-18 03:33N 34°08' W 121°17'1 1.0
2015-Feb-18 02:33N 34°09' W 121°17'1 0.7
2015-Feb-18 01:33N 34°10' W 121°17'1 0.7
2015-Feb-18 00:33N 34°10' W 121°17'1 0.8
2015-Feb-17 23:33N 34°11' W 121°17'1 0.7
2015-Feb-17 22:33N 34°12' W 121°17'1 0.7
2015-Feb-17 21:33N 34°13' W 121°17'0 0.5
2015-Feb-17 20:33N 34°13' W 121°17'1 0.6
2015-Feb-17 19:33N 34°14' W 121°16'1 0.5
2015-Feb-17 17:33N 34°14' W 121°16'1 0.6
2015-Feb-17 16:33N 34°15' W 121°15'1 0.6
2015-Feb-17 15:33N 34°16' W 121°15'1 0.6
2015-Feb-17 14:33N 34°16' W 121°15'0 0.5
2015-Feb-17 13:33N 34°17' W 121°15'0 0.4
2015-Feb-17 12:33N 34°17' W 121°15'0 0.5
2015-Feb-17 11:33N 34°17' W 121°15'1 0.5
2015-Feb-17 10:33N 34°18' W 121°15'1 0.9
2015-Feb-17 09:33N 34°19' W 121°15'1 1.1
2015-Feb-17 08:33N 34°20' W 121°15'1 1.1
2015-Feb-17 07:33N 34°21' W 121°15'1 1.1
2015-Feb-17 06:33N 34°22' W 121°15'1 0.9
2015-Feb-17 05:33N 34°23' W 121°15'1 0.8
2015-Feb-17 04:33N 34°24' W 121°15'1 0.8
2015-Feb-17 03:33N 34°25' W 121°15'1 0.8
2015-Feb-17 02:33N 34°25' W 121°16'1 0.9
2015-Feb-17 01:31N 34°26' W 121°16'1 1.0
2015-Feb-17 00:32N 34°27' W 121°16'1 1.0
2015-Feb-16 23:33N 34°28' W 121°17'1 1.0
2015-Feb-16 22:33N 34°29' W 121°18'  
Track history (hours):
 
Tides and Currents Weather Stations Pressure Air Temp Water Temp Dewpoint Dewpoint Depression Visibility Wind Speed Wind Dir Waves Ship Positions

MOL Celebration

Last reported at 2015-Feb-26 22:32 UTC. Time now 2015-Feb-26 23:22 UTC.
Position N 37°49' W 122°20'.

Length 316 m; draft 12.1 m.

Type: Ship (hazmat cat D). MMSI: 309901000.

Date/timePositionNaut miles runAvg speedWind from/ knotsBaromVisibWave heightAir tempDewpointWater temp
2015-Feb-26 22:32N 37°49' W 122°20'0 0.0
2015-Feb-26 21:32N 37°49' W 122°20'0 0.0
2015-Feb-26 20:32N 37°49' W 122°20'0 0.0
2015-Feb-26 19:32N 37°49' W 122°20'0 0.0
2015-Feb-26 18:32N 37°49' W 122°20'0 0.0
2015-Feb-26 17:32N 37°49' W 122°20'0 0.0
2015-Feb-26 16:32N 37°49' W 122°20'0 0.0
2015-Feb-26 15:32N 37°49' W 122°20'2 1.8
2015-Feb-26 14:33N 37°48' W 122°22'5 5.2
2015-Feb-26 13:33N 37°49' W 122°28'1211.5
2015-Feb-26 12:33N 37°43' W 122°40'1212.0
2015-Feb-26 11:33N 37°31' W 122°40'1412.4
2015-Feb-26 10:28N 37°17' W 122°40'1712.6
2015-Feb-26 09:08N 37°01' W 122°40'812.0
2015-Feb-26 08:26N 36°52' W 122°43'910.2
2015-Feb-26 07:32N 36°44' W 122°48'4 1.8
2015-Feb-26 05:29N 36°48' W 122°48'2 2.0
2015-Feb-26 04:26N 36°50' W 122°48'2 2.1
2015-Feb-26 03:33N 36°52' W 122°48'2 2.0
2015-Feb-26 02:33N 36°54' W 122°49'2 1.9
2015-Feb-26 01:33N 36°56' W 122°48'2 2.0
2015-Feb-26 00:33N 36°58' W 122°48'2 2.0
2015-Feb-25 23:33N 36°60' W 122°48'2 1.7
2015-Feb-25 22:33N 37°01' W 122°48'1 1.4
2015-Feb-25 21:33N 37°03' W 122°48'1 1.4
2015-Feb-25 20:33N 37°04' W 122°48'1 1.4
2015-Feb-25 19:33N 37°06' W 122°47'1 1.3
2015-Feb-25 18:33N 37°07' W 122°47'3 3.0
2015-Feb-25 17:33N 37°05' W 122°45'5 5.3
2015-Feb-25 16:33N 37°01' W 122°40'8 7.3
2015-Feb-25 15:30N 36°54' W 122°40'1112.2
2015-Feb-25 14:33N 36°42' W 122°39'1611.8
2015-Feb-25 13:13N 36°27' W 122°33'911.6
2015-Feb-25 12:28N 36°19' W 122°30'1311.6
2015-Feb-25 11:19N 36°06' W 122°24'1311.8
2015-Feb-25 10:13N 35°54' W 122°19'811.9
2015-Feb-25 09:33N 35°46' W 122°16'1411.8
2015-Feb-25 08:23N 35°34' W 122°09'1011.6
2015-Feb-25 07:33N 35°25' W 122°04'1212.1
2015-Feb-25 06:33N 35°14' W 121°59'1212.1
2015-Feb-25 05:33N 35°03' W 121°53'1211.8
2015-Feb-25 04:33N 34°52' W 121°47'1211.6
2015-Feb-25 03:32N 34°41' W 121°40'1211.7
2015-Feb-25 02:33N 34°31' W 121°35'1211.9
2015-Feb-25 01:33N 34°20' W 121°28'1411.6
2015-Feb-25 00:19N 34°08' W 121°20'911.7
2015-Feb-24 23:32N 33°59' W 121°15'1212.3
2015-Feb-24 22:33N 33°49' W 121°09'1312.8
2015-Feb-24 21:33N 33°37' W 121°02'  
2015-Feb-22 06:32N 33°35' W 120°59'2 0.8
2015-Feb-22 04:29N 33°36' W 120°60'3 1.1
2015-Feb-22 01:33N 33°38' W 121°03'36 2.2
2015-Feb-21 09:20N 33°02' W 120°57'1 0.7
2015-Feb-21 08:33N 33°03' W 120°57'1 0.8
2015-Feb-21 07:33N 33°04' W 120°57'1 0.9
2015-Feb-21 06:29N 33°05' W 120°58'1 0.9
2015-Feb-21 05:33N 33°05' W 120°58'1 0.8
2015-Feb-21 04:33N 33°06' W 120°58'2 0.8
2015-Feb-21 02:07N 33°08' W 120°60'0 0.8
2015-Feb-21 01:30N 33°08' W 120°60'1 0.8
2015-Feb-21 00:27N 33°09' W 120°60'1 0.9
2015-Feb-20 23:11N 33°10' W 121°00'1 0.8
2015-Feb-20 22:33N 33°11' W 121°00'1 0.8
2015-Feb-20 21:14N 33°12' W 121°00'1 0.8
2015-Feb-20 20:20N 33°12' W 121°00'1 0.8
2015-Feb-20 19:31N 33°13' W 120°60'1 0.7
2015-Feb-20 18:31N 33°14' W 120°60'2 0.7
2015-Feb-20 16:21N 33°15' W 120°59'1 0.7
2015-Feb-20 15:33N 33°16' W 120°59'2 0.9
2015-Feb-20 13:23N 33°18' W 120°59'1 1.0
2015-Feb-20 12:33N 33°18' W 120°60'1 1.1
2015-Feb-20 11:33N 33°20' W 120°59'1 1.2
2015-Feb-20 10:33N 33°21' W 120°59'1 1.3
2015-Feb-20 09:33N 33°22' W 120°59'1 1.2
2015-Feb-20 08:33N 33°23' W 120°59'1 1.2
2015-Feb-20 07:32N 33°24' W 120°59'1 1.3
2015-Feb-20 06:29N 33°26' W 120°59'1 1.2
2015-Feb-20 05:29N 33°27' W 120°59'1 1.2
2015-Feb-20 04:30N 33°28' W 120°59'1 1.1
2015-Feb-20 03:33N 33°29' W 120°59'1 1.2
2015-Feb-20 02:21N 33°30' W 121°00'4 1.1
2015-Feb-19 23:11N 33°33' W 121°03'1 1.0
2015-Feb-19 22:29N 33°33' W 121°04'1 0.7
2015-Feb-19 21:33N 33°34' W 121°04'1 0.5
2015-Feb-19 20:33N 33°34' W 121°05'0 0.5
2015-Feb-19 19:33N 33°34' W 121°05'0 0.4
2015-Feb-19 18:33N 33°35' W 121°06'0 0.4
2015-Feb-19 17:32N 33°35' W 121°06'0 0.5
2015-Feb-19 16:33N 33°36' W 121°06'1 0.7
2015-Feb-19 15:06N 33°36' W 121°07'1 0.9
2015-Feb-19 14:03N 33°37' W 121°08'0 0.8
2015-Feb-19 13:33N 33°37' W 121°08'1 1.0
2015-Feb-19 12:27N 33°38' W 121°09'1 0.9
2015-Feb-19 11:33N 33°39' W 121°09'1 0.8
2015-Feb-19 10:33N 33°40' W 121°10'1 1.0
2015-Feb-19 09:27N 33°41' W 121°10'1 1.0
2015-Feb-19 08:33N 33°41' W 121°10'1 0.9
2015-Feb-19 07:33N 33°42' W 121°11'1 1.0
2015-Feb-19 06:31N 33°43' W 121°11'1 1.1
2015-Feb-19 05:33N 33°44' W 121°12'1 1.0
2015-Feb-19 04:33N 33°45' W 121°12'1 0.9
2015-Feb-19 03:33N 33°46' W 121°13'1 0.8
2015-Feb-19 02:15N 33°47' W 121°14'1 1.0
2015-Feb-19 01:33N 33°47' W 121°14'1 1.0
2015-Feb-19 00:33N 33°48' W 121°15'1 0.9
2015-Feb-18 23:33N 33°49' W 121°16'1 0.9
2015-Feb-18 22:33N 33°49' W 121°17'1 0.7
2015-Feb-18 21:32N 33°50' W 121°17'1 0.8
2015-Feb-18 20:33N 33°51' W 121°17'1 0.8
2015-Feb-18 19:33N 33°51' W 121°17'1 0.9
2015-Feb-18 18:32N 33°52' W 121°17'1 1.0
2015-Feb-18 17:31N 33°53' W 121°17'1 0.9
2015-Feb-18 16:33N 33°54' W 121°17'1 0.9
2015-Feb-18 15:33N 33°55' W 121°17'1 1.0
2015-Feb-18 14:33N 33°56' W 121°17'1 1.0
2015-Feb-18 13:33N 33°57' W 121°16'1 1.1
2015-Feb-18 12:32N 33°58' W 121°17'2 1.2
2015-Feb-18 10:30N 34°00' W 121°18'1 1.1
2015-Feb-18 09:33N 34°01' W 121°18'1 1.0
2015-Feb-18 08:26N 34°02' W 121°18'1 1.0
2015-Feb-18 07:33N 34°03' W 121°18'1 1.0
2015-Feb-18 06:33N 34°04' W 121°18'1 1.2
2015-Feb-18 05:33N 34°05' W 121°17'1 1.3
2015-Feb-18 04:33N 34°07' W 121°17'1 1.3
2015-Feb-18 03:33N 34°08' W 121°17'1 1.0
2015-Feb-18 02:33N 34°09' W 121°17'1 0.7
2015-Feb-18 01:33N 34°10' W 121°17'1 0.7
2015-Feb-18 00:33N 34°10' W 121°17'1 0.8
2015-Feb-17 23:33N 34°11' W 121°17'1 0.7
2015-Feb-17 22:33N 34°12' W 121°17'1 0.7
2015-Feb-17 21:33N 34°13' W 121°17'0 0.5
2015-Feb-17 20:33N 34°13' W 121°17'1 0.6
2015-Feb-17 19:33N 34°14' W 121°16'1 0.5
2015-Feb-17 17:33N 34°14' W 121°16'1 0.6
2015-Feb-17 16:33N 34°15' W 121°15'1 0.6
2015-Feb-17 15:33N 34°16' W 121°15'1 0.6
2015-Feb-17 14:33N 34°16' W 121°15'0 0.5
2015-Feb-17 13:33N 34°17' W 121°15'0 0.4
2015-Feb-17 12:33N 34°17' W 121°15'0 0.5
2015-Feb-17 11:33N 34°17' W 121°15'1 0.5
2015-Feb-17 10:33N 34°18' W 121°15'1 0.9
2015-Feb-17 09:33N 34°19' W 121°15'1 1.1
2015-Feb-17 08:33N 34°20' W 121°15'1 1.1
2015-Feb-17 07:33N 34°21' W 121°15'1 1.1
2015-Feb-17 06:33N 34°22' W 121°15'1 0.9
2015-Feb-17 05:33N 34°23' W 121°15'1 0.8
2015-Feb-17 04:33N 34°24' W 121°15'1 0.8
2015-Feb-17 03:33N 34°25' W 121°15'1 0.8
2015-Feb-17 02:33N 34°25' W 121°16'1 0.9
2015-Feb-17 01:31N 34°26' W 121°16'1 1.0
2015-Feb-17 00:32N 34°27' W 121°16'1 1.0
2015-Feb-16 23:33N 34°28' W 121°17'1 1.0
2015-Feb-16 22:33N 34°29' W 121°18'  

Dump ship's entire track history